Terminal Aerodrome Forecast
Issued by NWS Louisville, KY

Home | Current Version | Previous Version | Graphics & Text | Print | Product List | Glossary On
Versions: 1 2 3 4 5 6 7 8 9 10 11 12 13 14 15 16 17 18 19 20 21 22 23 24
000
FTUS43 KLMK 011927 AAA
TAFSDF
TAF AMD
KSDF 011927Z 0119/0224 19006KT P6SM VCSH FEW025 SCT060 BKN100
      TEMPO 0119/0123 4SM -SHRA BR BKN025
     FM020100 VRB04KT P6SM BKN030
     FM020700 VRB03KT 6SM BR BKN025
      TEMPO 0209/0213 3SM BR BKN012
     FM021500 27005KT P6SM SCT015 BKN025=

USA.gov is the U.S. government's official web portal to all federal, state and local government web resources and services.